Time;durP1;ratioP1;P1;durP2;ratioP2;P2;SDS_P1;SDS_P2;PMS_P1;PMS_P2;Temp;Humidity;BMP_temperature;BMP_pressure;BME280_temperature;BME280_humidity;BME280_pressure;Samples;Min_cycle;Max_cycle;Signal;HPM_P1;HPM_P2
2022/04/12 00:00:20;;;;;;;17.83;8.33;;;11.90;99.90;;;;;;4989610;28;20211;-60
2022/04/12 00:02:46;;;;;;;19.83;7.80;;;11.80;99.90;;;;;;4990691;28;20179;-60
2022/04/12 00:05:12;;;;;;;17.80;7.80;;;11.80;99.90;;;;;;4990931;28;20211;-60
2022/04/12 00:07:39;;;;;;;20.63;7.60;;;11.80;99.90;;;;;;4992481;28;20191;-59
2022/04/12 00:10:06;;;;;;;13.40;7.60;;;11.80;99.90;;;;;;4994174;28;20714;-59
2022/04/12 00:12:32;;;;;;;16.23;7.77;;;11.80;99.90;;;;;;4994484;28;20175;-59
2022/04/12 00:14:58;;;;;;;19.90;7.03;;;11.80;99.90;;;;;;4992947;28;20191;-59
2022/04/12 00:20:09;;;;;;;15.43;7.40;;;11.80;99.90;;;;;;4987917;28;20190;-60
2022/04/12 00:22:36;;;;;;;13.33;6.87;;;11.80;99.90;;;;;;4993535;28;20183;-59
2022/04/12 00:25:03;;;;;;;14.65;7.03;;;11.90;99.90;;;;;;4993823;28;20183;-60
2022/04/12 00:27:28;;;;;;;13.65;7.15;;;11.90;99.90;;;;;;4994418;28;20175;-60
2022/04/12 00:29:55;;;;;;;13.53;6.63;;;11.90;99.90;;;;;;4993979;28;20178;-59
2022/04/12 00:32:21;;;;;;;13.30;7.35;;;11.80;99.90;;;;;;4993489;28;20321;-59
2022/04/12 00:34:46;;;;;;;15.52;7.35;;;11.80;99.90;;;;;;4993744;28;20199;-59
2022/04/12 00:37:12;;;;;;;13.17;7.27;;;11.70;99.90;;;;;;4993898;28;20215;-60
2022/04/12 00:39:38;;;;;;;17.90;7.47;;;11.70;99.90;;;;;;4993456;28;20615;-60
2022/04/12 00:42:04;;;;;;;16.90;7.50;;;11.70;99.90;;;;;;4993941;28;20155;-60
2022/04/12 00:44:30;;;;;;;14.65;7.80;;;11.70;99.90;;;;;;4993412;28;20540;-60
2022/04/12 00:46:56;;;;;;;13.27;7.73;;;11.70;99.90;;;;;;4993165;28;20222;-60
2022/04/12 00:49:25;;;;;;;21.33;7.77;;;11.70;99.90;;;;;;4993594;28;20182;-60
2022/04/12 00:51:52;;;;;;;16.37;8.30;;;11.70;99.90;;;;;;4993534;28;20650;-60
2022/04/12 00:54:20;;;;;;;14.35;8.00;;;11.80;99.90;;;;;;4993558;28;20663;-60
2022/04/12 00:56:47;;;;;;;20.10;8.80;;;10.70;99.90;;;;;;4993723;28;20208;-59
2022/04/12 00:59:14;;;;;;;17.27;8.53;;;11.80;99.90;;;;;;4993413;28;20544;-60
2022/04/12 01:01:41;;;;;;;17.13;7.90;;;11.80;99.90;;;;;;4993033;28;20175;-59
2022/04/12 01:04:06;;;;;;;15.67;7.43;;;11.80;99.90;;;;;;4993366;28;20265;-59
2022/04/12 01:06:32;;;;;;;15.43;7.97;;;11.80;99.90;;;;;;4991955;28;20247;-59
2022/04/12 01:08:58;;;;;;;19.50;9.13;;;11.80;99.90;;;;;;4993210;28;20179;-60
2022/04/12 01:11:26;;;;;;;14.48;8.40;;;11.80;99.90;;;;;;4993039;28;20194;-61
2022/04/12 01:13:52;;;;;;;18.43;9.47;;;11.70;99.90;;;;;;4992993;28;20187;-61
2022/04/12 01:16:18;;;;;;;17.70;8.53;;;11.70;99.90;;;;;;4992973;28;20180;-61
2022/04/12 01:18:44;;;;;;;14.70;7.80;;;11.60;99.90;;;;;;4991410;28;20705;-60
2022/04/12 01:21:10;;;;;;;13.07;7.80;;;11.60;99.90;;;;;;4993147;28;20657;-61
2022/04/12 01:24:02;;;;;;;15.57;7.93;;;11.60;99.90;;;;;;4976687;28;20171;-59
2022/04/12 01:26:28;;;;;;;15.33;7.63;;;11.50;99.90;;;;;;4992886;28;20416;-59
2022/04/12 01:28:54;;;;;;;14.37;7.97;;;11.40;99.90;;;;;;4992904;28;20168;-59
2022/04/12 01:31:20;;;;;;;15.32;8.05;;;11.40;99.90;;;;;;4992937;28;20672;-59
2022/04/12 01:33:46;;;;;;;19.13;8.00;;;11.30;99.90;;;;;;4992664;28;20182;-59
2022/04/12 01:36:12;;;;;;;15.23;8.33;;;11.20;99.90;;;;;;4992648;28;20219;-59
2022/04/12 01:38:38;;;;;;;14.88;7.80;;;11.10;99.90;;;;;;4992515;28;20622;-59
2022/04/12 01:41:04;;;;;;;20.50;8.97;;;11.00;99.90;;;;;;4992489;28;20189;-59
2022/04/12 01:43:30;;;;;;;18.07;8.47;;;11.00;99.90;;;;;;4992192;28;20184;-59
2022/04/12 01:45:56;;;;;;;14.43;8.00;;;10.90;99.90;;;;;;4992460;28;20211;-59
2022/04/12 01:48:22;;;;;;;16.37;8.27;;;10.90;99.90;;;;;;4992163;28;20183;-59
2022/04/12 01:50:48;;;;;;;15.20;8.07;;;10.80;99.90;;;;;;4992538;28;20187;-58
2022/04/12 01:53:14;;;;;;;14.17;8.13;;;10.80;99.90;;;;;;4992427;28;20183;-59
2022/04/12 01:55:40;;;;;;;14.13;8.23;;;10.70;99.90;;;;;;4992398;28;20234;-59
2022/04/12 01:58:06;;;;;;;16.67;7.87;;;10.70;99.90;;;;;;4992335;28;20184;-60
2022/04/12 02:00:32;;;;;;;16.93;8.10;;;10.70;99.90;;;;;;4991771;28;20646;-62
2022/04/12 02:02:58;;;;;;;16.50;8.90;;;10.70;99.90;;;;;;4991217;28;20175;-60
2022/04/12 02:05:23;;;;;;;13.10;8.67;;;10.60;99.90;;;;;;4991942;28;20213;-60
2022/04/12 02:07:49;;;;;;;16.03;8.67;;;10.70;99.90;;;;;;4991851;28;20191;-59
2022/04/12 02:10:15;;;;;;;17.80;8.60;;;10.70;99.90;;;;;;4991926;28;20182;-60
2022/04/12 02:12:41;;;;;;;16.60;8.50;;;10.70;99.90;;;;;;4992045;28;20630;-59
2022/04/12 02:15:07;;;;;;;18.83;9.23;;;10.70;99.90;;;;;;4991631;28;20175;-60
2022/04/12 02:17:33;;;;;;;20.30;9.23;;;10.70;99.90;;;;;;4991274;28;20523;-61
2022/04/12 02:19:58;;;;;;;18.93;9.60;;;10.70;99.90;;;;;;4992091;28;20191;-61
2022/04/12 02:22:24;;;;;;;19.60;9.03;;;10.60;99.90;;;;;;4992055;28;20634;-61
2022/04/12 02:24:50;;;;;;;22.93;9.53;;;10.60;99.90;;;;;;4991802;28;20611;-60
2022/04/12 02:27:16;;;;;;;19.20;9.37;;;10.70;99.90;;;;;;4991681;28;20215;-61
2022/04/12 02:29:41;;;;;;;19.60;9.10;;;10.70;99.90;;;;;;4989791;28;20210;-61
2022/04/12 02:32:07;;;;;;;15.77;9.27;;;10.70;99.90;;;;;;4992030;28;20179;-60
2022/04/12 02:34:34;;;;;;;20.77;10.10;;;10.70;99.90;;;;;;4991539;28;20262;-61
2022/04/12 02:36:59;;;;;;;16.30;9.70;;;10.70;99.90;;;;;;4991810;28;20283;-60
2022/04/12 02:39:25;;;;;;;17.53;9.50;;;10.70;99.90;;;;;;4991799;28;20179;-60
2022/04/12 02:41:51;;;;;;;16.27;9.07;;;10.80;99.90;;;;;;4991757;28;20206;-59
2022/04/12 02:44:17;;;;;;;23.63;9.33;;;10.90;99.90;;;;;;4991502;28;20183;-59
2022/04/12 02:46:43;;;;;;;16.90;8.93;;;10.90;99.90;;;;;;4991482;28;20215;-61
2022/04/12 02:49:09;;;;;;;18.17;9.50;;;10.90;99.90;;;;;;4991584;28;20661;-59
2022/04/12 02:51:35;;;;;;;19.77;9.13;;;11.00;99.90;;;;;;4991536;28;20262;-64
2022/04/12 02:54:00;;;;;;;18.53;9.17;;;11.00;99.90;;;;;;4991591;28;20179;-64
2022/04/12 02:56:27;;;;;;;20.30;9.37;;;11.00;99.90;;;;;;4991529;28;20182;-64
2022/04/12 02:58:52;;;;;;;18.87;9.63;;;11.00;99.90;;;;;;4991478;28;20248;-64
2022/04/12 03:01:18;;;;;;;19.13;8.73;;;10.90;99.90;;;;;;4991515;28;20274;-64
2022/04/12 03:03:44;;;;;;;15.10;9.17;;;10.80;99.90;;;;;;4991076;28;20197;-63
2022/04/12 03:06:09;;;;;;;18.30;10.00;;;10.80;99.90;;;;;;4991433;28;20207;-64
2022/04/12 03:08:35;;;;;;;17.13;9.27;;;10.80;99.90;;;;;;4991576;28;20263;-64
2022/04/12 03:11:01;;;;;;;15.17;8.77;;;10.80;99.90;;;;;;4991300;28;20540;-65
2022/04/12 03:13:27;;;;;;;17.37;9.30;;;10.80;99.90;;;;;;4991637;28;20179;-67
2022/04/12 03:15:53;;;;;;;17.47;9.33;;;10.80;99.90;;;;;;4991012;28;20277;-65
2022/04/12 03:18:19;;;;;;;16.27;9.23;;;10.80;99.90;;;;;;4990421;28;20186;-65
2022/04/12 03:20:45;;;;;;;18.47;9.07;;;10.80;99.90;;;;;;4990998;28;20654;-64
2022/04/12 03:23:11;;;;;;;19.07;10.07;;;10.80;99.90;;;;;;4991277;28;20176;-64
2022/04/12 03:25:38;;;;;;;18.97;9.30;;;10.80;99.90;;;;;;4991214;28;20242;-66
2022/04/12 03:28:05;;;;;;;18.90;10.97;;;10.80;99.90;;;;;;4991335;28;20183;-63
2022/04/12 03:30:31;;;;;;;16.20;10.07;;;10.90;99.90;;;;;;4990960;28;20664;-64
2022/04/12 03:32:56;;;;;;;17.20;9.70;;;10.90;99.90;;;;;;4991581;28;20167;-61
2022/04/12 03:35:22;;;;;;;17.53;9.90;;;10.90;99.90;;;;;;4991092;28;20320;-60
2022/04/12 03:37:48;;;;;;;16.63;9.97;;;11.00;99.90;;;;;;4990771;28;20633;-61
2022/04/12 03:40:14;;;;;;;16.87;10.00;;;11.00;99.90;;;;;;4991104;28;20229;-61
2022/04/12 03:42:40;;;;;;;17.63;10.10;;;11.10;99.90;;;;;;4994496;28;20680;-61
2022/04/12 03:45:07;;;;;;;17.07;10.30;;;11.10;99.90;;;;;;4994544;28;20187;-62
2022/04/12 03:47:32;;;;;;;16.17;9.73;;;11.10;99.90;;;;;;4994272;28;20229;-62
2022/04/12 03:49:58;;;;;;;18.97;9.40;;;11.10;99.90;;;;;;4982897;28;20215;-60
2022/04/12 03:52:24;;;;;;;20.03;9.97;;;11.10;99.90;;;;;;4993462;28;20184;-61
2022/04/12 03:54:49;;;;;;;19.43;10.07;;;11.10;99.90;;;;;;4994362;28;20180;-61
2022/04/12 03:57:17;;;;;;;18.40;9.97;;;11.10;99.90;;;;;;4994410;28;20183;-60
2022/04/12 03:59:43;;;;;;;22.47;10.20;;;11.20;99.90;;;;;;4994233;28;20190;-60
2022/04/12 04:02:08;;;;;;;16.10;9.63;;;11.20;99.90;;;;;;4994314;28;20206;-60
2022/04/12 04:04:34;;;;;;;14.00;9.47;;;11.20;99.90;;;;;;4994178;28;20182;-61
2022/04/12 04:07:00;;;;;;;15.53;9.07;;;11.20;99.90;;;;;;4984005;28;20208;-61
2022/04/12 04:09:26;;;;;;;19.00;9.90;;;11.10;99.90;;;;;;4993694;28;20193;-61
2022/04/12 04:11:51;;;;;;;16.73;9.47;;;11.10;99.90;;;;;;4993866;28;20182;-61
2022/04/12 04:14:17;;;;;;;20.70;9.73;;;11.10;99.90;;;;;;4994221;28;20585;-61
2022/04/12 04:16:43;;;;;;;23.00;10.60;;;11.10;99.90;;;;;;4992721;28;20639;-62
2022/04/12 04:19:09;;;;;;;18.60;10.67;;;11.10;99.90;;;;;;4993899;28;20214;-62
2022/04/12 04:21:36;;;;;;;21.73;10.17;;;11.20;99.90;;;;;;4994102;28;20226;-62
2022/04/12 04:24:02;;;;;;;18.50;11.00;;;11.10;99.90;;;;;;4993585;28;20210;-62
2022/04/12 04:26:28;;;;;;;15.70;9.93;;;11.10;99.90;;;;;;4993962;28;20218;-62
2022/04/12 04:28:54;;;;;;;19.93;10.37;;;11.20;99.90;;;;;;4993858;28;20171;-62
2022/04/12 04:31:20;;;;;;;20.83;10.40;;;11.10;99.90;;;;;;4994042;28;20229;-62
2022/04/12 04:33:46;;;;;;;19.87;10.77;;;11.10;99.90;;;;;;4993843;28;20187;-62
2022/04/12 04:36:12;;;;;;;22.87;11.10;;;11.00;99.90;;;;;;4993403;28;20211;-62
2022/04/12 04:38:38;;;;;;;20.93;12.07;;;11.00;99.90;;;;;;4993381;28;20594;-62
2022/04/12 04:41:03;;;;;;;23.03;12.37;;;11.00;99.90;;;;;;4993428;28;20650;-62
2022/04/12 04:43:29;;;;;;;28.10;12.43;;;11.00;99.90;;;;;;4993552;28;20192;-62
2022/04/12 04:45:55;;;;;;;20.13;12.03;;;10.90;99.90;;;;;;4993486;28;20297;-61
2022/04/12 04:48:22;;;;;;;23.90;12.87;;;10.90;99.90;;;;;;4993038;28;20184;-61
2022/04/12 04:50:48;;;;;;;22.07;13.07;;;10.80;99.90;;;;;;4993645;28;20188;-61
2022/04/12 04:53:14;;;;;;;21.63;12.37;;;10.90;99.90;;;;;;4992658;28;20540;-61
2022/04/12 04:55:43;;;;;;;25.97;11.80;;;10.90;99.90;;;;;;4992994;28;20708;-61
2022/04/12 04:58:10;;;;;;;21.50;12.07;;;10.80;99.90;;;;;;4993709;28;20246;-61
2022/04/12 05:00:36;;;;;;;20.60;12.07;;;10.80;99.90;;;;;;4991815;28;20179;-61
2022/04/12 05:03:03;;;;;;;22.53;12.83;;;10.90;99.90;;;;;;4993355;28;20179;-61
2022/04/12 05:05:30;;;;;;;21.77;13.30;;;10.60;99.90;;;;;;4993093;28;20206;-61
2022/04/12 05:07:57;;;;;;;27.47;13.90;;;10.90;99.90;;;;;;4992974;28;20191;-61
2022/04/12 05:10:24;;;;;;;24.00;14.03;;;11.00;99.90;;;;;;4991842;28;20687;-61
2022/04/12 05:12:50;;;;;;;30.27;15.50;;;11.00;99.90;;;;;;4992989;28;20180;-61
2022/04/12 05:15:17;;;;;;;24.03;15.17;;;11.00;99.90;;;;;;4991869;28;20246;-61
2022/04/12 05:17:52;;;;;;;28.43;15.13;;;10.90;99.90;;;;;;4992175;28;20700;-61
2022/04/12 05:20:20;;;;;;;23.97;15.33;;;10.90;99.90;;;;;;4992927;28;20307;-61
2022/04/12 05:22:46;;;;;;;26.50;16.03;;;10.90;99.90;;;;;;4992622;28;20175;-62
2022/04/12 05:25:12;;;;;;;32.87;16.27;;;11.00;99.90;;;;;;4992999;28;20210;-63
2022/04/12 05:27:38;;;;;;;30.83;15.20;;;11.00;99.90;;;;;;4992542;28;20543;-63
2022/04/12 05:30:09;;;;;;;29.03;15.73;;;10.90;99.90;;;;;;4992654;28;20669;-63
2022/04/12 05:32:36;;;;;;;25.10;16.13;;;11.00;99.90;;;;;;4992738;28;20180;-63
2022/04/12 05:35:03;;;;;;;27.50;16.80;;;11.00;99.90;;;;;;4992338;28;20189;-62
2022/04/12 05:37:31;;;;;;;33.93;16.87;;;11.00;99.90;;;;;;4990704;28;20219;-63
2022/04/12 05:39:57;;;;;;;28.20;17.07;;;11.00;99.90;;;;;;4992617;28;20270;-63
2022/04/12 05:42:26;;;;;;;26.57;17.10;;;11.00;99.90;;;;;;4992342;28;20665;-63
2022/04/12 05:44:51;;;;;;;33.57;16.63;;;11.00;99.90;;;;;;4992431;28;20274;-62
2022/04/12 05:47:17;;;;;;;30.20;16.87;;;11.00;99.90;;;;;;4992298;28;20222;-62
2022/04/12 05:49:43;;;;;;;30.33;17.80;;;11.00;99.90;;;;;;4992311;28;20178;-62
2022/04/12 05:52:09;;;;;;;29.60;17.80;;;11.00;99.90;;;;;;4992416;28;20236;-61
2022/04/12 05:54:34;;;;;;;29.90;16.93;;;11.00;99.90;;;;;;4992141;28;20275;-65
2022/04/12 05:57:00;;;;;;;31.47;16.90;;;11.00;99.90;;;;;;4992193;28;20311;-63
2022/04/12 05:59:26;;;;;;;27.50;16.23;;;11.00;99.90;;;;;;4991701;28;20187;-63
2022/04/12 06:01:52;;;;;;;27.33;16.43;;;11.00;99.90;;;;;;4991830;28;20183;-64
2022/04/12 06:04:18;;;;;;;31.20;17.53;;;11.00;99.90;;;;;;4991439;28;20183;-63
2022/04/12 06:06:43;;;;;;;30.80;16.97;;;11.00;99.90;;;;;;4991472;28;20222;-63
2022/04/12 06:09:09;;;;;;;30.73;15.90;;;11.00;99.90;;;;;;4991423;28;20171;-64
2022/04/12 06:11:35;;;;;;;30.37;17.03;;;11.00;99.90;;;;;;4990574;28;20187;-63
2022/04/12 06:14:01;;;;;;;29.47;17.80;;;11.00;99.90;;;;;;4991733;28;20179;-63
2022/04/12 06:16:27;;;;;;;29.80;17.93;;;11.00;99.90;;;;;;4992101;28;20179;-64
2022/04/12 06:18:53;;;;;;;30.00;17.17;;;11.00;99.90;;;;;;4991305;28;20186;-64
2022/04/12 06:21:19;;;;;;;32.37;17.63;;;11.00;99.90;;;;;;4991880;28;20234;-64
2022/04/12 06:23:45;;;;;;;188.13;30.37;;;11.00;99.90;;;;;;4991520;28;20171;-64
2022/04/12 06:26:11;;;;;;;37.40;18.33;;;11.10;99.90;;;;;;4990341;28;20297;-64
2022/04/12 06:28:37;;;;;;;31.53;17.47;;;11.00;99.90;;;;;;4991233;28;20565;-63
2022/04/12 06:31:03;;;;;;;36.53;17.40;;;11.00;99.90;;;;;;4991427;28;20566;-64
2022/04/12 06:33:29;;;;;;;30.33;17.43;;;11.00;99.90;;;;;;4989892;28;20218;-63
2022/04/12 06:35:55;;;;;;;30.53;17.13;;;11.00;99.90;;;;;;4991370;28;20187;-64
2022/04/12 06:38:20;;;;;;;29.37;16.90;;;11.10;99.90;;;;;;4990394;28;20198;-64
2022/04/12 06:40:49;;;;;;;30.03;17.07;;;11.10;99.90;;;;;;4990064;28;20183;-63
2022/04/12 06:43:15;;;;;;;29.50;14.80;;;11.10;99.90;;;;;;4983105;28;20190;-61
2022/04/12 06:45:41;;;;;;;26.97;13.70;;;11.10;99.90;;;;;;4991746;28;20219;-60
2022/04/12 06:48:07;;;;;;;23.37;13.90;;;11.10;99.90;;;;;;4991450;28;20641;-60
2022/04/12 06:50:34;;;;;;;23.73;13.97;;;11.20;99.90;;;;;;4991403;28;20214;-60
2022/04/12 06:53:03;;;;;;;26.90;13.70;;;11.20;99.90;;;;;;4991105;28;20180;-60
2022/04/12 06:55:29;;;;;;;19.97;13.50;;;11.30;99.90;;;;;;4990539;28;20183;-60
2022/04/12 06:57:55;;;;;;;26.80;13.73;;;11.30;99.90;;;;;;4990136;28;20658;-60
2022/04/12 07:00:21;;;;;;;21.67;13.60;;;11.30;99.90;;;;;;4985371;28;20176;-61
2022/04/12 07:02:47;;;;;;;25.37;13.43;;;11.30;99.90;;;;;;4977682;28;20167;-61
2022/04/12 07:05:13;;;;;;;23.63;14.20;;;11.30;99.90;;;;;;4989851;28;20175;-60
2022/04/12 07:07:40;;;;;;;21.63;13.20;;;11.40;99.90;;;;;;4990954;28;20717;-59
2022/04/12 07:10:08;;;;;;;22.23;12.83;;;11.30;99.90;;;;;;4990083;28;20178;-59
2022/04/12 07:12:35;;;;;;;20.50;12.93;;;11.40;99.90;;;;;;4990850;28;20224;-61
2022/04/12 07:15:01;;;;;;;22.40;13.27;;;11.40;99.90;;;;;;4991124;28;20171;-59
2022/04/12 07:17:27;;;;;;;22.90;12.53;;;11.40;99.90;;;;;;4993991;28;20175;-59
2022/04/12 07:19:52;;;;;;;23.93;12.07;;;11.40;99.90;;;;;;4995393;28;20182;-59
2022/04/12 07:22:18;;;;;;;21.87;12.30;;;11.40;99.90;;;;;;4991195;28;20179;-61
2022/04/12 07:24:44;;;;;;;20.20;12.07;;;11.50;99.90;;;;;;4995354;28;20665;-58
2022/04/12 07:27:10;;;;;;;23.77;12.47;;;11.50;99.90;;;;;;4994615;28;20711;-59
2022/04/12 07:29:36;;;;;;;23.67;12.40;;;11.50;99.90;;;;;;4995164;28;20258;-60
2022/04/12 07:32:02;;;;;;;25.60;11.33;;;11.50;99.90;;;;;;4995119;28;20646;-59
2022/04/12 07:34:27;;;;;;;17.87;11.13;;;11.40;99.90;;;;;;4994702;28;20519;-56
2022/04/12 07:36:53;;;;;;;20.43;11.77;;;11.50;99.90;;;;;;4994903;28;20240;-58
2022/04/12 07:39:20;;;;;;;17.37;10.47;;;11.50;99.90;;;;;;4994980;28;20202;-61
2022/04/12 07:41:47;;;;;;;28.37;11.77;;;11.50;99.90;;;;;;4994811;28;20171;-59
2022/04/12 07:44:17;;;;;;;25.80;11.60;;;11.50;99.90;;;;;;4979301;28;20184;-59
2022/04/12 07:46:43;;;;;;;21.83;10.77;;;11.60;99.90;;;;;;4986841;28;20230;-59
2022/04/12 07:49:09;;;;;;;19.17;11.30;;;11.60;99.90;;;;;;4994587;28;20266;-59
2022/04/12 07:51:35;;;;;;;22.47;11.23;;;11.70;99.90;;;;;;4994877;28;20254;-59
2022/04/12 07:54:02;;;;;;;22.60;11.60;;;11.70;99.90;;;;;;4994604;28;20579;-59
2022/04/12 07:56:28;;;;;;;19.73;11.03;;;11.80;99.90;;;;;;4994207;28;20168;-60
2022/04/12 07:58:54;;;;;;;21.47;11.10;;;11.80;99.90;;;;;;4994069;28;20229;-61
2022/04/12 08:01:20;;;;;;;18.10;10.60;;;11.90;99.90;;;;;;4994345;28;20214;-61
2022/04/12 08:03:47;;;;;;;20.10;10.27;;;11.90;99.90;;;;;;4994411;28;20693;-60
2022/04/12 08:06:12;;;;;;;14.17;9.47;;;12.00;99.90;;;;;;4993104;28;20218;-60
2022/04/12 08:08:38;;;;;;;23.27;9.77;;;12.10;99.90;;;;;;4994153;28;20658;-62
2022/04/12 08:11:04;;;;;;;15.37;8.50;;;12.20;99.90;;;;;;4993390;28;20183;-59
2022/04/12 08:13:31;;;;;;;18.30;9.10;;;12.30;99.90;;;;;;4992517;28;20210;-61
2022/04/12 08:15:57;;;;;;;14.03;9.23;;;12.40;99.90;;;;;;4974056;28;20179;-60
2022/04/12 08:18:23;;;;;;;13.33;8.07;;;12.50;99.90;;;;;;4982752;28;20200;-61
2022/04/12 08:20:54;;;;;;;19.73;9.70;;;12.40;99.90;;;;;;4982646;28;20183;-59
2022/04/12 08:23:24;;;;;;;15.32;8.38;;;12.40;99.90;;;;;;4993939;28;20179;-59
2022/04/12 08:25:50;;;;;;;17.70;8.95;;;12.20;99.90;;;;;;4993485;28;20290;-60
2022/04/12 08:28:16;;;;;;;20.70;9.67;;;12.20;99.90;;;;;;4983785;28;20176;-60
2022/04/12 08:30:42;;;;;;;16.83;9.53;;;12.10;99.90;;;;;;4990897;28;20193;-62
2022/04/12 08:33:08;;;;;;;17.70;9.10;;;12.00;99.90;;;;;;4993762;28;20209;-60
2022/04/12 08:35:34;;;;;;;20.43;10.33;;;12.00;99.90;;;;;;4993401;28;20279;-61
2022/04/12 08:38:03;;;;;;;21.13;9.67;;;12.10;99.90;;;;;;4993721;28;20366;-61
2022/04/12 08:40:29;;;;;;;17.73;9.23;;;12.20;99.90;;;;;;4993806;28;20214;-59
2022/04/12 08:42:57;;;;;;;23.13;9.93;;;12.30;99.90;;;;;;4986244;28;20631;-58
2022/04/12 08:45:25;;;;;;;17.37;9.40;;;12.40;99.90;;;;;;4977441;28;20184;-58
2022/04/12 08:47:51;;;;;;;18.02;8.90;;;12.50;99.90;;;;;;4993491;28;20191;-58
2022/04/12 08:50:19;;;;;;;13.37;8.30;;;12.40;99.90;;;;;;4993728;28;20536;-58
2022/04/12 08:52:46;;;;;;;22.13;8.57;;;12.40;99.90;;;;;;4992933;28;20539;-61
2022/04/12 08:55:12;;;;;;;15.37;8.63;;;12.50;99.90;;;;;;4989951;28;20183;-61
2022/04/12 08:57:38;;;;;;;18.37;9.13;;;12.50;99.90;;;;;;4981984;28;20239;-62
2022/04/12 09:00:06;;;;;;;19.05;8.80;;;12.20;99.90;;;;;;4974011;28;20172;-60
2022/04/12 09:02:32;;;;;;;13.60;8.70;;;12.60;99.90;;;;;;4985225;28;20241;-61
2022/04/12 09:04:58;;;;;;;14.65;8.27;;;12.60;99.90;;;;;;4993074;28;20167;-61
2022/04/12 09:07:26;;;;;;;14.93;9.10;;;12.60;99.90;;;;;;4989993;28;20606;-61
2022/04/12 09:09:52;;;;;;;16.93;8.50;;;12.60;99.90;;;;;;4992343;28;20555;-61
2022/04/12 09:12:18;;;;;;;14.37;8.80;;;12.60;99.90;;;;;;4992555;28;20266;-62
2022/04/12 09:14:56;;;;;;;15.77;8.80;;;12.60;99.90;;;;;;4989546;28;20282;-61
2022/04/12 09:17:28;;;;;;;14.67;8.60;;;12.60;99.90;;;;;;4990767;28;20261;-62
2022/04/12 09:19:55;;;;;;;16.33;9.00;;;12.70;99.90;;;;;;4989716;28;20179;-60
2022/04/12 09:22:25;;;;;;;17.87;8.83;;;12.80;99.90;;;;;;4984408;28;20184;-60
2022/04/12 09:24:59;;;;;;;14.27;8.77;;;12.90;99.90;;;;;;4992050;28;20222;-60
2022/04/12 09:27:30;;;;;;;12.60;7.27;;;13.10;99.90;;;;;;4973187;28;20212;-60
2022/04/12 09:29:58;;;;;;;15.45;6.55;;;13.40;99.90;;;;;;4983769;28;20242;-56
2022/04/12 09:32:26;;;;;;;13.55;6.97;;;13.50;99.90;;;;;;4990961;28;20262;-55
2022/04/12 09:34:53;;;;;;;15.73;6.38;;;13.80;99.90;;;;;;4990797;28;20170;-56
2022/04/12 09:37:26;;;;;;;13.73;6.63;;;14.00;99.90;;;;;;4989363;28;20207;-60
2022/04/12 09:39:54;;;;;;;14.13;6.65;;;14.00;99.90;;;;;;4990244;28;20179;-60
2022/04/12 09:42:39;;;;;;;13.80;5.63;;;14.30;99.90;;;;;;4990273;28;20313;-60
2022/04/12 09:45:07;;;;;;;16.48;5.90;;;14.50;99.90;;;;;;4990719;28;20179;-55
2022/04/12 09:47:33;;;;;;;12.80;4.95;;;14.50;99.90;;;;;;4992327;28;20283;-59
2022/04/12 09:50:00;;;;;;;17.50;4.85;;;14.50;99.90;;;;;;4991531;28;20638;-60
2022/04/12 09:52:27;;;;;;;12.02;4.30;;;14.50;99.90;;;;;;4992381;28;20191;-60
2022/04/12 09:54:56;;;;;;;13.05;4.38;;;14.50;99.90;;;;;;4991038;28;20650;-59
2022/04/12 09:57:24;;;;;;;16.02;3.90;;;14.40;99.90;;;;;;4992496;28;20282;-60
2022/04/12 09:59:56;;;;;;;16.98;4.25;;;14.20;99.90;;;;;;4992388;28;20245;-60
2022/04/12 10:02:24;;;;;;;23.27;4.75;;;14.10;99.90;;;;;;4992180;28;20183;-60
2022/04/12 10:04:55;;;;;;;142.38;12.85;;;14.00;99.90;;;;;;4992361;28;20167;-60
2022/04/12 10:07:23;;;;;;;25.85;6.20;;;13.90;99.90;;;;;;4992074;28;20203;-60
2022/04/12 10:09:51;;;;;;;20.30;4.88;;;13.80;99.90;;;;;;4992098;28;20381;-60
2022/04/12 10:12:17;;;;;;;21.52;5.28;;;13.70;99.90;;;;;;4992107;28;20657;-61
2022/04/12 10:14:44;;;;;;;26.85;5.75;;;13.80;99.90;;;;;;4992027;28;20172;-61
2022/04/12 10:17:13;;;;;;;18.33;5.55;;;13.70;99.90;;;;;;4992116;28;20191;-60
2022/04/12 10:19:40;;;;;;;17.40;4.75;;;13.60;99.90;;;;;;4991964;28;20187;-60
2022/04/12 10:22:07;;;;;;;25.20;6.07;;;13.80;99.90;;;;;;4991801;28;20537;-60
2022/04/12 10:24:34;;;;;;;22.90;5.20;;;13.70;99.90;;;;;;4992049;28;20191;-60
2022/04/12 10:27:00;;;;;;;16.95;4.20;;;13.70;99.90;;;;;;4991726;28;20215;-61
2022/04/12 10:29:26;;;;;;;18.27;5.40;;;13.70;99.90;;;;;;4991879;28;20175;-60
2022/04/12 10:31:57;;;;;;;20.73;5.20;;;13.80;99.90;;;;;;4991875;28;20183;-60
2022/04/12 10:34:23;;;;;;;16.23;4.93;;;13.80;99.90;;;;;;4990589;28;20676;-60
2022/04/12 10:36:59;;;;;;;22.65;5.85;;;13.90;99.90;;;;;;4990253;28;20242;-60
2022/04/12 10:39:37;;;;;;;21.27;5.70;;;13.90;99.90;;;;;;4991514;28;20704;-60
2022/04/12 10:42:25;;;;;;;28.90;5.78;;;13.90;99.90;;;;;;4991715;28;20258;-60
2022/04/12 10:44:58;;;;;;;28.95;5.72;;;14.00;99.90;;;;;;4991421;28;20202;-60
2022/04/12 10:47:33;;;;;;;35.53;6.15;;;14.20;99.90;;;;;;4991476;28;20211;-61
2022/04/12 10:50:07;;;;;;;25.70;5.50;;;14.10;99.90;;;;;;4991468;28;20182;-60
2022/04/12 10:52:37;;;;;;;34.75;5.90;;;14.20;99.90;;;;;;4991326;28;20171;-60
2022/04/12 10:55:07;;;;;;;31.27;6.10;;;14.10;99.90;;;;;;4991511;28;20309;-60
2022/04/12 10:57:34;;;;;;;16.23;5.13;;;14.20;99.90;;;;;;4991456;28;20167;-61
2022/04/12 11:00:09;;;;;;;25.98;5.85;;;14.50;99.90;;;;;;4991577;28;20170;-60
2022/04/12 11:02:41;;;;;;;24.80;6.15;;;14.20;99.90;;;;;;4991243;28;20202;-60
2022/04/12 11:05:28;;;;;;;25.73;5.15;;;14.30;99.90;;;;;;4991329;28;20167;-60
2022/04/12 11:07:54;;;;;;;33.42;5.95;;;14.10;99.90;;;;;;4991236;28;20219;-60
2022/04/12 11:10:21;;;;;;;19.67;5.40;;;14.20;99.90;;;;;;4991411;28;20210;-60
2022/04/12 11:12:49;;;;;;;24.40;5.88;;;14.20;99.90;;;;;;4991254;28;20262;-61
2022/04/12 11:15:21;;;;;;;29.50;5.93;;;14.10;99.90;;;;;;4991414;28;20167;-60
2022/04/12 11:17:48;;;;;;;31.55;6.55;;;14.10;99.90;;;;;;4989969;28;20197;-61
2022/04/12 11:20:21;;;;;;;33.50;5.88;;;14.20;99.90;;;;;;4991306;28;20650;-60
2022/04/12 11:23:02;;;;;;;21.92;5.57;;;14.20;99.90;;;;;;4991295;28;20233;-61
2022/04/12 11:25:27;;;;;;;28.88;6.20;;;14.20;99.90;;;;;;4989298;28;20168;-60
2022/04/12 11:27:57;;;;;;;28.88;6.38;;;14.20;99.90;;;;;;4989692;28;20245;-60
2022/04/12 11:30:27;;;;;;;24.98;6.55;;;14.20;99.90;;;;;;4989233;28;20164;-60
2022/04/12 11:32:54;;;;;;;26.00;5.47;;;14.40;99.90;;;;;;4990533;28;20194;-60
2022/04/12 11:35:22;;;;;;;31.35;6.30;;;14.30;99.90;;;;;;4989633;28;20179;-60
2022/04/12 11:37:48;;;;;;;31.17;7.43;;;14.30;99.90;;;;;;4988714;28;20227;-60
2022/04/12 11:40:13;;;;;;;22.75;5.35;;;14.40;99.90;;;;;;4989148;28;20172;-60
2022/04/12 11:42:39;;;;;;;25.13;6.53;;;14.60;99.90;;;;;;4989240;28;20182;-60
2022/04/12 11:45:06;;;;;;;29.50;6.40;;;14.80;99.90;;;;;;4989220;28;20213;-60
2022/04/12 11:47:38;;;;;;;26.38;6.72;;;14.90;99.90;;;;;;4989180;28;20298;-60
2022/04/12 11:50:15;;;;;;;28.02;6.05;;;15.10;99.90;;;;;;4987977;28;20638;-60
2022/04/12 11:52:41;;;;;;;35.00;6.22;;;14.90;99.90;;;;;;4989637;28;20654;-60
2022/04/12 11:55:07;;;;;;;29.60;6.57;;;14.80;99.90;;;;;;4989312;28;20172;-60
2022/04/12 11:57:33;;;;;;;24.20;6.03;;;14.90;99.90;;;;;;4988820;28;20163;-60
2022/04/12 12:00:00;;;;;;;30.88;6.53;;;14.80;99.90;;;;;;4989631;28;20183;-60
2022/04/12 12:02:29;;;;;;;21.15;5.15;;;14.90;99.90;;;;;;4991911;28;20179;-60
2022/04/12 12:04:57;;;;;;;27.75;5.85;;;15.00;99.90;;;;;;4994550;28;20183;-60
2022/04/12 12:07:24;;;;;;;22.73;5.57;;;15.10;99.90;;;;;;4994133;28;20215;-61
2022/04/12 12:09:57;;;;;;;41.20;6.78;;;15.10;99.90;;;;;;4994441;28;20183;-60
2022/04/12 12:12:42;;;;;;;21.20;5.13;;;15.10;99.90;;;;;;4994554;28;20262;-60
2022/04/12 12:15:18;;;;;;;21.02;5.05;;;15.10;99.90;;;;;;4989563;28;20192;-61
2022/04/12 12:17:46;;;;;;;26.98;5.43;;;15.10;99.90;;;;;;4991480;28;20178;-60
2022/04/12 12:20:14;;;;;;;22.65;5.28;;;15.00;99.90;;;;;;4993794;28;20257;-60
2022/04/12 12:22:44;;;;;;;21.35;4.40;;;14.90;99.90;;;;;;4985666;28;20180;-60
2022/04/12 12:25:18;;;;;;;26.15;5.47;;;14.90;99.90;;;;;;4993789;28;20190;-60
2022/04/12 12:27:48;;;;;;;21.60;5.18;;;14.90;99.90;;;;;;4992705;28;20234;-60
2022/04/12 12:30:17;;;;;;;21.17;5.20;;;15.10;99.90;;;;;;4994465;28;20175;-60
2022/04/12 12:32:44;;;;;;;17.67;5.10;;;15.30;99.90;;;;;;4994069;28;20182;-60
2022/04/12 12:35:11;;;;;;;18.98;4.95;;;15.30;99.90;;;;;;4992790;28;20793;-60